Angola, New York
Current Conditions -  °F | °C
As of 3:53 AM on Wednesday 22 Oct 2014 (Local Time) from KDKK Reporting Station
Overcast Overcast  
Wind Chill: 40°   Ceiling: 1000
Heat Index: 46°   Visibility: 10mi
Dew Point: 43°   Wind: 13mph
Humidity: 89%   Direction: 30°NNE
Pressure: 30.11"   Gusts: NA
Location:  42.64°N, 79.03°W
Report Text: KDKK 220753Z AUTO 03011KT 10SM OVC010 08/06 A3011 RMK AO2 RAE04B39E49 CIG 007V013 SLP200 P0000 T00780061
Loading
Personal Weather Stations






























Interactive Weather Map
Tropical Storm Tracking
New forecast layout! Learn more

10-Day Weather Forecast

Advertisements
Track Severe Weather on mobile